createdAt,value
2023-01-17T00:02:25.710Z,42.00
2023-01-17T00:05:11.265Z,38.40
2023-01-17T00:07:56.972Z,37.05
2023-01-17T00:10:26.501Z,40.33
2023-01-17T00:13:01.947Z,39.30
2023-01-17T00:15:31.135Z,42.30
2023-01-17T00:17:59.015Z,40.13
2023-01-17T00:20:46.627Z,39.13
2023-01-17T00:23:58.061Z,36.20
2023-01-17T00:26:25.284Z,36.47
2023-01-17T00:28:52.984Z,36.20
2023-01-17T00:31:20.570Z,32.15
2023-01-17T00:33:47.704Z,31.05
2023-01-17T00:36:14.665Z,28.52
2023-01-17T00:38:41.716Z,28.30
2023-01-17T00:41:11.723Z,36.78
2023-01-17T00:43:57.985Z,36.50
2023-01-17T00:46:43.446Z,36.33
2023-01-17T00:49:28.973Z,31.60
2023-01-17T00:52:14.437Z,33.55
2023-01-17T00:54:59.814Z,32.20
2023-01-17T00:57:45.414Z,30.42
2023-01-17T01:00:31.495Z,33.40
2023-01-17T01:03:17.236Z,41.90
2023-01-17T01:06:02.648Z,31.00
2023-01-17T01:08:49.458Z,30.75
2023-01-17T01:11:38.726Z,30.77
2023-01-17T01:14:26.650Z,32.92
2023-01-17T01:17:12.385Z,40.90
2023-01-17T01:19:57.822Z,30.23
2023-01-17T01:22:43.664Z,29.83
2023-01-17T01:25:28.934Z,27.30
2023-01-17T01:28:30.812Z,31.63
2023-01-17T01:31:20.761Z,29.90
2023-01-17T01:33:48.109Z,20.45
2023-01-17T01:36:15.043Z,21.67
2023-01-17T01:38:41.985Z,17.33
2023-01-17T01:41:08.936Z,20.60
2023-01-17T01:43:50.556Z,18.75
2023-01-17T01:46:30.393Z,16.15
2023-01-17T01:49:08.453Z,19.33
2023-01-17T01:51:40.380Z,10.40
2023-01-17T01:54:23.439Z,72.53
2023-01-17T01:56:54.008Z,21.80
2023-01-17T01:59:22.862Z,12.43
2023-01-17T02:01:52.958Z,15.55
2023-01-17T02:04:22.525Z,12.52
2023-01-17T02:06:56.169Z,15.35
2023-01-17T02:09:24.519Z,13.40
2023-01-17T02:11:51.564Z,13.52
2023-01-17T02:14:22.137Z,12.50
2023-01-17T02:17:18.604Z,11.75
2023-01-17T02:19:57.187Z,14.18
2023-01-17T02:22:54.401Z,15.57
2023-01-17T02:25:48.382Z,17.20
2023-01-17T02:28:27.243Z,12.82
2023-01-17T02:31:03.116Z,16.98
2023-01-17T02:34:00.597Z,14.65
2023-01-17T02:36:36.674Z,13.07
2023-01-17T02:39:21.635Z,14.07
2023-01-17T02:41:55.737Z,14.52
2023-01-17T02:44:23.000Z,15.57
2023-01-17T02:46:53.578Z,13.98
2023-01-17T02:49:24.708Z,17.58
2023-01-17T02:52:20.670Z,17.42
2023-01-17T02:54:50.381Z,16.67
2023-01-17T02:57:40.366Z,17.17
2023-01-17T03:00:31.022Z,17.50
2023-01-17T03:02:58.207Z,13.85
2023-01-17T03:05:32.725Z,14.05
2023-01-17T03:08:01.882Z,14.95
2023-01-17T03:10:31.628Z,16.05
2023-01-17T03:26:49.391Z,17.02
2023-01-17T03:29:19.810Z,15.82
2023-01-17T03:31:47.009Z,14.18
2023-01-17T03:34:14.035Z,15.80
2023-01-17T03:36:41.115Z,14.45
2023-01-17T03:39:08.293Z,18.38
2023-01-17T03:41:35.454Z,17.02
2023-01-17T03:44:02.603Z,13.35
2023-01-17T03:46:29.749Z,16.15
2023-01-17T03:48:56.858Z,15.88
2023-01-17T03:51:23.884Z,13.77
2023-01-17T03:53:52.153Z,14.80
2023-01-17T03:56:19.364Z,13.50
2023-01-17T03:58:46.420Z,12.82
2023-01-17T04:01:13.641Z,14.63
2023-01-17T04:03:40.931Z,13.10
2023-01-17T04:06:08.022Z,15.23
2023-01-17T04:08:35.016Z,17.10
2023-01-17T04:11:02.076Z,28.00
2023-01-17T04:13:29.166Z,10.90
2023-01-17T04:15:56.508Z,15.07
2023-01-17T04:18:24.778Z,13.23
2023-01-17T04:20:52.025Z,15.73
2023-01-17T04:23:19.263Z,12.70
2023-01-17T04:25:46.036Z,12.10
2023-01-17T04:28:13.222Z,12.95
2023-01-17T04:30:40.701Z,12.20
2023-01-17T04:33:07.707Z,10.27
2023-01-17T04:35:34.806Z,13.93
2023-01-17T04:38:01.858Z,11.73
2023-01-17T04:40:29.751Z,12.57
2023-01-17T04:42:58.034Z,12.45
2023-01-17T04:45:25.170Z,13.20
2023-01-17T04:47:52.232Z,12.68
2023-01-17T04:50:19.377Z,15.27
2023-01-17T04:52:46.288Z,14.43
2023-01-17T04:55:13.339Z,12.95
2023-01-17T04:57:40.388Z,12.25
2023-01-17T05:00:08.513Z,10.63
2023-01-17T05:02:35.591Z,15.20
2023-01-17T05:05:02.604Z,12.05
2023-01-17T05:07:29.633Z,13.32
2023-01-17T05:09:56.660Z,13.98
2023-01-17T05:12:23.629Z,11.75
2023-01-17T05:14:50.573Z,13.93
2023-01-17T05:17:17.622Z,15.60
2023-01-17T05:19:45.177Z,14.13
2023-01-17T05:22:16.348Z,14.27
2023-01-17T05:24:47.976Z,15.20
2023-01-17T05:27:15.667Z,11.73
2023-01-17T05:29:42.776Z,12.52
2023-01-17T05:32:09.918Z,13.57
2023-01-17T05:34:37.045Z,16.77
2023-01-17T05:37:04.029Z,13.20
2023-01-17T05:39:31.281Z,33.78
2023-01-17T05:41:59.275Z,14.70
2023-01-17T05:44:27.932Z,17.92
2023-01-17T05:46:55.410Z,14.88
2023-01-17T05:49:22.564Z,14.35
2023-01-17T05:51:49.780Z,15.93
2023-01-17T05:54:17.212Z,18.60
2023-01-17T05:56:44.081Z,15.98
2023-01-17T05:59:13.243Z,13.18
2023-01-17T06:01:41.230Z,17.65
2023-01-17T06:04:08.176Z,21.70
2023-01-17T06:06:35.237Z,21.90
2023-01-17T06:09:02.324Z,21.25
2023-01-17T06:11:29.354Z,19.13
2023-01-17T06:13:56.238Z,12.95
2023-01-17T06:16:23.369Z,16.60
2023-01-17T06:18:50.608Z,17.50
2023-01-17T06:21:17.676Z,13.35
2023-01-17T06:23:44.594Z,19.52
2023-01-17T06:26:11.709Z,20.73
2023-01-17T06:28:38.666Z,20.13
2023-01-17T06:31:09.503Z,14.90
2023-01-17T06:33:36.904Z,21.80
2023-01-17T06:36:04.312Z,18.45
2023-01-17T06:38:31.463Z,17.52
2023-01-17T06:41:00.478Z,14.43
2023-01-17T06:43:32.653Z,15.90
2023-01-17T06:46:01.080Z,15.98
2023-01-17T06:48:28.394Z,13.75
2023-01-17T06:50:58.086Z,15.70
2023-01-17T06:53:25.356Z,17.42
2023-01-17T06:55:55.288Z,14.25
2023-01-17T06:58:22.212Z,19.15
2023-01-17T07:00:49.714Z,14.23
2023-01-17T07:03:25.124Z,16.88
2023-01-17T07:05:53.217Z,15.18
2023-01-17T07:08:20.639Z,20.35
2023-01-17T07:10:48.707Z,24.80
2023-01-17T07:13:15.886Z,19.15
2023-01-17T07:15:42.876Z,16.48
2023-01-17T07:18:09.822Z,24.08
2023-01-17T07:20:38.555Z,22.15
2023-01-17T07:23:06.420Z,20.35
2023-01-17T07:25:33.374Z,17.98
2023-01-17T07:28:00.395Z,18.60
2023-01-17T07:30:27.501Z,16.05
2023-01-17T07:32:54.828Z,19.15
2023-01-17T07:35:22.638Z,19.75
2023-01-17T07:37:50.707Z,18.83
2023-01-17T07:40:19.113Z,13.63
2023-01-17T07:42:46.887Z,16.58
2023-01-17T07:45:16.113Z,17.30
2023-01-17T07:47:43.980Z,17.48
2023-01-17T07:50:11.523Z,27.45
2023-01-17T07:52:38.532Z,27.20
2023-01-17T07:55:06.313Z,20.92
2023-01-17T07:57:33.324Z,9.98
2023-01-17T08:00:00.244Z,16.90
2023-01-17T08:02:27.245Z,13.50
2023-01-17T08:04:54.242Z,16.85
2023-01-17T08:07:21.365Z,17.50
2023-01-17T08:09:50.357Z,17.05
2023-01-17T08:12:17.627Z,16.50
2023-01-17T08:14:45.097Z,15.30
2023-01-17T08:17:17.019Z,18.20
2023-01-17T08:19:45.072Z,18.77
2023-01-17T08:22:15.124Z,17.92
2023-01-17T08:24:42.281Z,15.77
2023-01-17T08:27:09.281Z,14.88
2023-01-17T08:29:36.773Z,19.45
2023-01-17T08:32:04.302Z,20.35
2023-01-17T08:34:33.496Z,16.30
2023-01-17T08:37:00.381Z,15.27
2023-01-17T08:39:27.911Z,18.25
2023-01-17T08:41:54.978Z,11.80
2023-01-17T08:44:22.083Z,16.50
2023-01-17T08:46:49.767Z,19.38
2023-01-17T08:49:16.745Z,19.27
2023-01-17T08:51:43.774Z,15.00
2023-01-17T08:54:13.004Z,15.10
2023-01-17T08:56:40.006Z,11.48
2023-01-17T08:59:07.005Z,13.43
2023-01-17T09:01:40.990Z,16.25
2023-01-17T09:06:41.381Z,12.52
2023-01-17T09:09:11.342Z,13.80
2023-01-17T09:11:38.594Z,12.02
2023-01-17T09:14:05.758Z,13.48
2023-01-17T09:16:32.720Z,16.45
2023-01-17T09:18:59.952Z,12.75
2023-01-17T09:21:27.267Z,13.80
2023-01-17T09:23:55.678Z,13.43
2023-01-17T09:26:27.954Z,13.35
2023-01-17T09:28:55.935Z,15.32
2023-01-17T09:31:23.980Z,11.02
2023-01-17T09:33:52.285Z,12.68
2023-01-17T09:36:19.517Z,14.93
2023-01-17T09:38:46.949Z,15.05
2023-01-17T09:41:43.604Z,14.38
2023-01-17T09:44:25.173Z,15.48
2023-01-17T09:47:00.208Z,11.73
2023-01-17T09:49:43.459Z,11.13
2023-01-17T09:52:17.770Z,12.63
2023-01-17T09:54:47.887Z,18.42
2023-01-17T09:57:36.344Z,13.70
2023-01-17T10:00:25.144Z,15.95
2023-01-17T10:03:34.026Z,12.98
2023-01-17T10:06:28.957Z,15.75
2023-01-17T10:09:24.116Z,13.20
2023-01-17T10:12:22.757Z,22.73
2023-01-17T10:15:16.564Z,14.80
2023-01-17T10:18:02.505Z,15.10
2023-01-17T10:20:54.294Z,13.60
2023-01-17T10:23:46.051Z,16.77
2023-01-17T10:26:18.811Z,13.32
2023-01-17T10:28:51.738Z,21.35
2023-01-17T10:31:21.795Z,19.05
2023-01-17T10:34:11.225Z,18.95
2023-01-17T10:36:42.085Z,17.80
2023-01-17T10:39:21.357Z,17.25
2023-01-17T10:41:58.680Z,19.13
2023-01-17T10:44:33.176Z,13.38
2023-01-17T10:47:20.352Z,20.77
2023-01-17T10:49:53.808Z,17.80
2023-01-17T10:52:48.103Z,16.08
2023-01-17T10:55:23.998Z,17.50
2023-01-17T10:57:53.248Z,15.75
2023-01-17T11:00:52.528Z,14.45
2023-01-17T11:03:24.058Z,19.40
2023-01-17T11:06:16.080Z,16.90
2023-01-17T11:09:07.046Z,20.80
2023-01-17T11:11:36.339Z,15.02
2023-01-17T11:14:14.427Z,15.13
2023-01-17T11:16:41.690Z,17.63
2023-01-17T11:19:17.471Z,19.30
2023-01-17T11:21:54.503Z,21.35
2023-01-17T11:24:30.547Z,19.92
2023-01-17T11:26:58.581Z,19.08
2023-01-17T11:29:36.865Z,20.73
2023-01-17T11:32:36.670Z,19.23
2023-01-17T11:35:15.758Z,20.92
2023-01-17T11:38:10.218Z,20.02
2023-01-17T11:40:41.527Z,18.85
2023-01-17T11:43:11.613Z,17.00
2023-01-17T11:45:41.795Z,18.10
2023-01-17T11:48:13.499Z,18.80
2023-01-17T11:50:59.909Z,21.40
2023-01-17T11:53:37.228Z,16.63
2023-01-17T11:56:11.708Z,19.38
2023-01-17T11:58:41.788Z,17.27
2023-01-17T12:01:17.282Z,18.92
2023-01-17T12:04:00.714Z,23.58
2023-01-17T12:06:58.036Z,24.27
2023-01-17T12:09:25.529Z,18.08
2023-01-17T12:12:35.608Z,16.92
2023-01-17T12:15:19.791Z,23.65
2023-01-17T12:18:09.180Z,11.80
2023-01-17T12:21:02.827Z,12.48
2023-01-17T12:23:48.595Z,11.57
2023-01-17T12:26:23.988Z,12.48
2023-01-17T12:29:20.074Z,14.15
2023-01-17T12:32:06.581Z,11.98
2023-01-17T12:34:37.480Z,23.40
2023-01-17T12:37:37.215Z,10.50
2023-01-17T12:40:25.391Z,11.27
2023-01-17T12:42:58.824Z,23.35
2023-01-17T12:45:33.879Z,14.88
2023-01-17T12:48:30.803Z,12.65
2023-01-17T12:51:21.815Z,11.95
2023-01-17T12:54:05.448Z,20.35
2023-01-17T12:56:46.276Z,16.55
2023-01-17T12:59:16.343Z,12.57
2023-01-17T13:01:58.780Z,15.13
2023-01-17T13:04:58.016Z,12.07
2023-01-17T13:07:49.670Z,11.90
2023-01-17T13:10:26.864Z,15.05
2023-01-17T13:12:59.285Z,12.88
2023-01-17T13:15:35.445Z,12.38
2023-01-17T13:18:26.090Z,17.33
2023-01-17T13:21:29.656Z,14.75
2023-01-17T13:24:31.477Z,11.75
2023-01-17T13:27:17.409Z,13.13
2023-01-17T13:30:10.226Z,11.82
2023-01-17T13:33:12.327Z,10.98
2023-01-17T13:35:46.701Z,10.80
2023-01-17T13:38:28.101Z,12.27
2023-01-17T13:41:01.460Z,14.13
2023-01-17T13:43:40.621Z,10.77
2023-01-17T13:46:08.944Z,10.52
2023-01-17T13:48:38.524Z,13.07
2023-01-17T13:51:08.091Z,12.50
2023-01-17T13:53:35.074Z,13.10
2023-01-17T13:56:14.459Z,11.27
2023-01-17T13:58:50.641Z,13.95
2023-01-17T14:01:24.255Z,18.17
2023-01-17T14:03:51.725Z,16.80
2023-01-17T14:06:44.871Z,13.18
2023-01-17T14:09:20.911Z,11.45
2023-01-17T14:11:52.668Z,11.93
2023-01-17T14:14:42.124Z,11.10
2023-01-17T14:17:20.368Z,11.07
2023-01-17T14:19:50.789Z,10.40
2023-01-17T14:22:20.951Z,11.18
2023-01-17T14:25:02.788Z,11.88
2023-01-17T14:27:34.735Z,14.10
2023-01-17T14:30:16.430Z,11.88
2023-01-17T14:33:02.368Z,10.05
2023-01-17T14:35:35.588Z,10.85
2023-01-17T14:38:05.649Z,11.33
2023-01-17T14:40:35.443Z,11.52
2023-01-17T14:43:14.341Z,12.10
2023-01-17T14:45:43.598Z,12.98
2023-01-17T14:48:29.499Z,13.95
2023-01-17T14:51:00.150Z,11.45
2023-01-17T14:53:32.004Z,11.05
2023-01-17T14:56:13.276Z,12.30
2023-01-17T14:58:41.355Z,10.73
2023-01-17T15:01:15.613Z,10.82
2023-01-17T15:03:50.179Z,11.32
2023-01-17T15:06:21.024Z,10.32
2023-01-17T15:08:50.182Z,9.25
2023-01-17T15:11:24.752Z,12.02
2023-01-17T15:29:00.452Z,14.52
2023-01-17T15:31:51.669Z,11.63
2023-01-17T15:34:43.285Z,11.65
2023-01-17T15:37:22.515Z,20.73
2023-01-17T15:39:49.711Z,26.60
2023-01-17T15:42:24.302Z,26.27
2023-01-17T15:44:57.895Z,12.85
2023-01-17T15:47:31.762Z,15.35
2023-01-17T15:50:00.294Z,15.13
2023-01-17T15:52:28.169Z,21.15
2023-01-17T15:57:39.883Z,19.50
2023-01-17T16:00:36.962Z,19.05
2023-01-17T16:03:29.443Z,16.70
2023-01-17T16:06:00.259Z,16.25
2023-01-17T16:08:32.516Z,16.67
2023-01-17T16:11:02.478Z,17.25
2023-01-17T16:13:32.187Z,16.75
2023-01-17T16:16:13.472Z,17.67
2023-01-17T16:18:40.959Z,17.25
2023-01-17T16:21:31.762Z,19.85
2023-01-17T16:23:59.916Z,11.77
2023-01-17T16:26:29.130Z,20.98
2023-01-17T16:28:56.459Z,22.23
2023-01-17T16:31:23.452Z,19.85
2023-01-17T16:33:50.801Z,15.85
2023-01-17T16:36:17.958Z,14.25
2023-01-17T16:38:45.966Z,13.48
2023-01-17T16:41:13.086Z,18.52
2023-01-17T16:43:40.247Z,20.17
2023-01-17T16:46:07.394Z,13.00
2023-01-17T16:48:34.416Z,14.80
2023-01-17T16:51:05.860Z,18.10
2023-01-17T16:53:32.776Z,11.57
2023-01-17T16:56:08.032Z,10.68
2023-01-17T16:58:35.120Z,15.02
2023-01-17T17:01:02.172Z,21.73
2023-01-17T17:03:29.840Z,18.15
2023-01-17T17:05:58.972Z,15.82
2023-01-17T17:08:28.914Z,13.27
2023-01-17T17:11:13.278Z,10.68
2023-01-17T17:13:45.196Z,22.02
2023-01-17T17:16:20.580Z,12.68
2023-01-17T17:18:55.389Z,23.23
2023-01-17T17:21:22.537Z,21.27
2023-01-17T17:23:56.806Z,17.88
2023-01-17T17:28:58.715Z,20.50
2023-01-17T17:31:26.125Z,12.98
2023-01-17T17:33:53.648Z,10.57
2023-01-17T17:36:20.914Z,16.17
2023-01-17T17:38:54.039Z,11.73
2023-01-17T17:41:23.850Z,14.07
2023-01-17T17:43:52.359Z,16.02
2023-01-17T17:46:21.043Z,13.52
2023-01-17T17:48:48.465Z,18.80
2023-01-17T17:51:31.579Z,21.67
2023-01-17T17:54:02.589Z,17.27
2023-01-17T17:56:31.382Z,16.90
2023-01-17T17:58:59.341Z,16.45
2023-01-17T18:01:26.663Z,13.13
2023-01-17T18:04:00.541Z,12.20
2023-01-17T18:06:27.591Z,19.15
2023-01-17T18:08:54.627Z,21.70
2023-01-17T18:11:24.200Z,20.40
2023-01-17T18:13:52.485Z,22.30
2023-01-17T18:16:22.309Z,18.80
2023-01-17T18:18:51.549Z,24.70
2023-01-17T18:21:25.331Z,18.40
2023-01-17T18:23:55.532Z,16.50
2023-01-17T18:26:28.572Z,18.58
2023-01-17T18:28:56.829Z,26.63
2023-01-17T18:31:25.433Z,22.15
2023-01-17T18:33:54.222Z,23.90
2023-01-17T18:36:23.454Z,28.77
2023-01-17T18:38:51.246Z,31.45
2023-01-17T18:41:23.932Z,28.08
2023-01-17T18:43:51.769Z,20.98
2023-01-17T18:46:20.276Z,19.52
2023-01-17T18:48:47.808Z,18.58
2023-01-17T18:51:17.151Z,23.58
2023-01-17T18:53:45.989Z,12.63
2023-01-17T18:56:16.038Z,26.10
2023-01-17T18:58:45.209Z,19.15
2023-01-17T19:01:18.559Z,27.13
2023-01-17T19:03:47.620Z,23.93
2023-01-17T19:06:18.006Z,35.42
2023-01-17T19:08:45.276Z,29.25
2023-01-17T19:11:12.873Z,21.42
2023-01-17T19:13:41.910Z,29.98
2023-01-17T19:16:13.991Z,24.98
2023-01-17T19:18:41.713Z,23.15
2023-01-17T19:21:14.191Z,21.20
2023-01-17T19:23:41.643Z,34.53
2023-01-17T19:26:09.667Z,25.30
2023-01-17T19:28:45.705Z,21.73
2023-01-17T19:31:27.439Z,22.55
2023-01-17T19:33:57.666Z,16.77
2023-01-17T19:36:31.290Z,20.90
2023-01-17T19:39:04.951Z,33.03
2023-01-17T19:41:34.581Z,18.65
2023-01-17T19:44:04.445Z,21.73
2023-01-17T19:46:32.475Z,19.77
2023-01-17T19:48:59.743Z,15.02
2023-01-17T19:51:27.254Z,14.50
2023-01-17T19:53:54.913Z,15.93
2023-01-17T19:56:24.929Z,19.48
2023-01-17T19:58:52.467Z,20.27
2023-01-17T20:01:22.695Z,14.73
2023-01-17T20:03:51.008Z,16.98
2023-01-17T20:06:21.528Z,21.08
2023-01-17T20:08:48.694Z,19.70
2023-01-17T20:11:18.704Z,22.08
2023-01-17T20:13:46.970Z,15.65
2023-01-17T20:16:16.678Z,16.80
2023-01-17T20:18:44.161Z,16.15
2023-01-17T20:21:14.153Z,21.73
2023-01-17T20:23:43.126Z,17.52
2023-01-17T20:26:15.436Z,15.27
2023-01-17T20:28:44.002Z,20.20
2023-01-17T20:31:20.219Z,16.73
2023-01-17T20:33:50.511Z,20.75
2023-01-17T20:36:18.739Z,25.70
2023-01-17T20:38:46.872Z,23.30
2023-01-17T20:41:40.465Z,24.75
2023-01-17T20:44:09.785Z,21.20
2023-01-17T20:46:41.229Z,19.00
2023-01-17T20:49:15.459Z,22.23
2023-01-17T20:54:14.486Z,21.70
2023-01-17T20:56:42.082Z,21.40
2023-01-17T20:59:13.079Z,20.08
2023-01-17T21:01:40.059Z,25.70
2023-01-17T21:04:10.245Z,23.27
2023-01-17T21:06:41.473Z,18.10
2023-01-17T21:09:12.484Z,20.75
2023-01-17T21:11:39.385Z,18.95
2023-01-17T21:14:06.662Z,23.88
2023-01-17T21:16:35.183Z,23.70
2023-01-17T21:19:02.791Z,23.38
2023-01-17T21:21:30.161Z,29.25
2023-01-17T21:23:58.993Z,31.85
2023-01-17T21:26:28.011Z,22.88
2023-01-17T21:28:55.776Z,21.38
2023-01-17T21:31:26.030Z,24.52
2023-01-17T21:33:58.618Z,19.33
2023-01-17T21:36:28.820Z,20.73
2023-01-17T21:38:58.509Z,21.65
2023-01-17T21:41:31.310Z,18.73
2023-01-17T21:44:01.027Z,18.25
2023-01-17T21:46:29.269Z,25.70
2023-01-17T21:48:57.695Z,24.10
2023-01-17T21:51:45.031Z,25.92
2023-01-17T21:54:11.944Z,26.92
2023-01-17T21:56:57.464Z,21.65
2023-01-17T21:59:24.576Z,26.55
2023-01-17T22:01:51.565Z,24.63
2023-01-17T22:04:18.497Z,23.55
2023-01-17T22:06:45.402Z,17.25
2023-01-17T22:09:12.351Z,19.67
2023-01-17T22:11:39.389Z,22.42
2023-01-17T22:14:07.522Z,18.35
2023-01-17T22:16:34.576Z,15.23
2023-01-17T22:19:01.559Z,18.65
2023-01-17T22:21:28.762Z,35.47
2023-01-17T22:23:58.355Z,17.25
2023-01-17T22:26:30.019Z,20.95
2023-01-17T22:29:00.346Z,14.35
2023-01-17T22:31:28.163Z,23.75
2023-01-17T22:34:01.817Z,16.05
2023-01-17T22:36:32.045Z,21.13
2023-01-17T22:38:59.040Z,15.30
2023-01-17T22:41:31.373Z,21.45
2023-01-17T22:44:00.004Z,17.50
2023-01-17T22:46:29.212Z,16.80
2023-01-17T22:48:57.204Z,17.02
2023-01-17T22:51:25.531Z,15.40
2023-01-17T22:53:57.868Z,20.40
2023-01-17T22:56:29.307Z,24.92
2023-01-17T22:58:56.551Z,16.50
2023-01-17T23:01:31.231Z,15.18
2023-01-17T23:04:04.178Z,19.88
2023-01-17T23:06:37.150Z,16.23
2023-01-17T23:09:07.134Z,15.55
2023-01-17T23:11:39.742Z,15.68
2023-01-17T23:14:52.735Z,17.85
2023-01-17T23:17:59.222Z,14.95
2023-01-17T23:20:26.154Z,17.75
2023-01-17T23:22:53.151Z,19.02
2023-01-17T23:25:20.359Z,13.07
2023-01-17T23:28:06.345Z,15.25
2023-01-17T23:30:36.966Z,14.40
2023-01-17T23:33:13.952Z,20.42
2023-01-17T23:35:43.484Z,15.35
2023-01-17T23:38:29.698Z,17.02
2023-01-17T23:41:26.457Z,16.42
2023-01-17T23:43:55.433Z,17.90
2023-01-17T23:46:24.205Z,19.80
2023-01-17T23:48:51.320Z,19.35
2023-01-17T23:51:18.616Z,22.10
2023-01-17T23:53:45.563Z,13.80
2023-01-17T23:56:19.071Z,18.10
2023-01-17T23:58:46.693Z,16.17
